createdAt,value
2022-10-05T00:08:36.484Z,15.54
2022-10-05T00:18:59.523Z,15.53
2022-10-05T00:29:22.953Z,15.41
2022-10-05T00:39:45.062Z,15.47
2022-10-05T00:50:25.404Z,15.49
2022-10-05T01:01:05.126Z,15.43
2022-10-05T01:12:05.790Z,15.34
2022-10-05T01:22:48.575Z,15.28
2022-10-05T01:33:09.970Z,15.33
2022-10-05T01:43:44.694Z,15.12
2022-10-05T01:54:40.419Z,14.91
2022-10-05T02:05:11.139Z,14.98
2022-10-05T02:15:42.942Z,14.83
2022-10-05T02:26:05.854Z,14.77
2022-10-05T02:36:35.449Z,14.73
2022-10-05T02:47:10.548Z,14.69
2022-10-05T02:57:38.974Z,14.82
2022-10-05T03:08:28.879Z,14.87
2022-10-05T03:19:10.285Z,14.83
2022-10-05T03:29:40.267Z,14.73
2022-10-05T03:40:06.758Z,14.76
2022-10-05T03:50:46.866Z,14.71
2022-10-05T04:01:18.555Z,14.69
2022-10-05T04:11:46.236Z,14.59
2022-10-05T04:22:25.400Z,14.60
2022-10-05T04:32:55.725Z,14.52
2022-10-05T04:43:55.551Z,14.39
2022-10-05T04:54:27.820Z,14.32
2022-10-05T05:05:08.610Z,14.41
2022-10-05T05:15:46.572Z,14.23
2022-10-05T05:26:20.128Z,14.16
2022-10-05T05:37:25.227Z,14.14
2022-10-05T05:47:53.918Z,14.04
2022-10-05T05:58:25.203Z,14.23
2022-10-05T06:08:51.034Z,14.26
2022-10-05T06:19:16.578Z,14.40
2022-10-05T06:30:16.955Z,14.45
2022-10-05T06:41:02.528Z,14.46
2022-10-05T06:51:50.358Z,14.58
2022-10-05T07:02:23.924Z,14.60
2022-10-05T07:12:54.454Z,14.60
2022-10-05T07:23:52.843Z,14.83
2022-10-05T07:34:41.282Z,14.96
2022-10-05T07:45:25.965Z,15.15
2022-10-05T07:55:52.417Z,15.34
2022-10-05T08:06:30.405Z,15.34
2022-10-05T08:16:57.691Z,15.47
2022-10-05T08:27:28.119Z,15.49
2022-10-05T08:37:51.111Z,15.54
2022-10-05T08:48:42.297Z,15.66
2022-10-05T08:59:22.055Z,15.59
2022-10-05T09:10:21.430Z,15.60
2022-10-05T09:20:53.588Z,15.79
2022-10-05T09:31:44.896Z,16.03
2022-10-05T09:42:17.877Z,16.19
2022-10-05T09:52:39.341Z,16.39
2022-10-05T10:03:16.143Z,16.47
2022-10-05T10:14:18.320Z,16.51
2022-10-05T10:25:04.546Z,16.72
2022-10-05T10:35:37.841Z,16.78
2022-10-05T10:45:59.300Z,16.84
2022-10-05T10:56:26.989Z,16.88
2022-10-05T11:07:09.830Z,17.07
2022-10-05T11:17:40.262Z,17.07
2022-10-05T11:28:35.761Z,17.06
2022-10-05T11:39:18.975Z,17.19
2022-10-05T11:49:47.485Z,17.47
2022-10-05T12:00:23.710Z,17.56
2022-10-05T12:11:25.643Z,17.69
2022-10-05T12:21:53.792Z,18.16
2022-10-05T12:32:33.638Z,18.09
2022-10-05T12:43:15.939Z,18.24
2022-10-05T12:53:40.401Z,18.42
2022-10-05T13:04:10.190Z,18.45
2022-10-05T13:14:40.800Z,18.54
2022-10-05T13:25:29.573Z,18.62
2022-10-05T13:36:18.687Z,18.66
2022-10-05T13:47:03.865Z,18.69
2022-10-05T13:57:46.719Z,18.57
2022-10-05T14:08:08.543Z,18.65
2022-10-05T14:18:32.844Z,18.64
2022-10-05T14:29:17.081Z,18.67
2022-10-05T14:39:42.453Z,18.81
2022-10-05T14:50:17.766Z,18.82
2022-10-05T15:01:17.709Z,18.80
2022-10-05T15:11:49.295Z,18.79
2022-10-05T15:22:14.136Z,18.85
2022-10-05T15:33:04.341Z,18.81
2022-10-05T15:43:35.142Z,18.83
2022-10-05T15:54:24.923Z,18.75
2022-10-05T16:05:20.041Z,18.76
2022-10-05T16:15:50.559Z,18.67
2022-10-05T16:26:18.487Z,18.66
2022-10-05T16:36:53.375Z,18.57
2022-10-05T16:47:39.735Z,18.39
2022-10-05T16:58:11.586Z,18.41
2022-10-05T17:09:10.359Z,18.55
2022-10-05T17:19:47.742Z,18.64
2022-10-05T17:30:28.418Z,18.52
2022-10-05T17:41:08.635Z,18.42
2022-10-05T17:51:48.863Z,18.29
2022-10-05T18:02:19.511Z,18.49
2022-10-05T18:12:59.454Z,18.49
2022-10-05T18:23:23.799Z,18.53
2022-10-05T18:33:53.415Z,18.63
2022-10-05T18:44:26.315Z,18.68
2022-10-05T18:55:13.340Z,18.84
2022-10-05T19:05:50.056Z,18.96
2022-10-05T19:16:20.228Z,18.88
2022-10-05T19:27:06.743Z,18.72
2022-10-05T19:37:46.241Z,18.66
2022-10-05T19:48:28.666Z,18.53
2022-10-05T19:58:55.918Z,18.42
2022-10-05T20:09:21.511Z,18.21
2022-10-05T20:20:01.534Z,18.02
2022-10-05T20:30:27.403Z,18.03
2022-10-05T20:40:48.886Z,18.02
2022-10-05T20:51:10.334Z,18.04
2022-10-05T21:01:32.035Z,18.03
2022-10-05T21:11:54.496Z,18.07
2022-10-05T21:22:15.984Z,18.16
2022-10-05T21:32:41.799Z,17.46
2022-10-05T21:43:05.588Z,15.81
2022-10-05T21:53:30.938Z,15.44
2022-10-05T22:03:52.463Z,15.32
2022-10-05T22:14:17.096Z,15.44
2022-10-05T22:24:38.625Z,15.40
2022-10-05T22:35:00.048Z,15.42
2022-10-05T22:45:21.524Z,15.46
2022-10-05T22:55:42.934Z,15.50
2022-10-05T23:06:10.104Z,15.44
2022-10-05T23:16:31.723Z,14.84
2022-10-05T23:26:53.204Z,14.47
2022-10-05T23:37:14.719Z,14.48
2022-10-05T23:47:36.174Z,14.82
2022-10-05T23:57:57.615Z,14.82
